createdAt,value
2022-08-22T00:01:48.190Z,38.79
2022-08-22T00:04:23.630Z,38.77
2022-08-22T00:07:21.635Z,39.11
2022-08-22T00:10:04.918Z,39.35
2022-08-22T00:12:45.680Z,39.43
2022-08-22T00:15:43.234Z,40.10
2022-08-22T00:18:29.731Z,40.14
2022-08-22T00:21:05.811Z,40.35
2022-08-22T00:23:45.541Z,40.13
2022-08-22T00:26:20.265Z,40.24
2022-08-22T00:28:51.025Z,40.41
2022-08-22T00:31:40.752Z,40.89
2022-08-22T00:34:31.240Z,41.28
2022-08-22T00:37:28.635Z,41.14
2022-08-22T00:40:23.882Z,41.59
2022-08-22T00:43:04.188Z,41.53
2022-08-22T00:46:08.997Z,41.67
2022-08-22T00:49:06.509Z,41.99
2022-08-22T00:52:25.154Z,42.63
2022-08-22T00:55:25.355Z,43.14
2022-08-22T00:58:33.800Z,43.90
2022-08-22T01:01:10.463Z,43.54
2022-08-22T01:03:50.350Z,43.67
2022-08-22T01:06:37.980Z,43.91
2022-08-22T01:09:33.331Z,43.77
2022-08-22T01:12:19.808Z,43.85
2022-08-22T01:15:01.876Z,44.41
2022-08-22T01:18:03.165Z,43.98
2022-08-22T01:21:12.736Z,44.10
2022-08-22T01:23:51.555Z,44.36
2022-08-22T01:26:50.595Z,44.61
2022-08-22T01:29:40.604Z,44.29
2022-08-22T01:32:29.559Z,44.51
2022-08-22T01:35:06.271Z,45.00
2022-08-22T01:37:52.835Z,45.00
2022-08-22T01:40:35.739Z,45.08
2022-08-22T01:43:11.715Z,45.23
2022-08-22T01:46:03.500Z,45.79
2022-08-22T01:48:39.066Z,46.08
2022-08-22T01:51:11.235Z,46.23
2022-08-22T01:54:11.260Z,46.43
2022-08-22T01:56:47.035Z,46.86
2022-08-22T01:59:32.245Z,46.31
2022-08-22T02:02:40.914Z,46.74
2022-08-22T02:05:23.515Z,46.97
2022-08-22T02:07:57.915Z,46.95
2022-08-22T02:10:29.140Z,46.62
2022-08-22T02:13:03.789Z,46.65
2022-08-22T02:15:41.228Z,47.04
2022-08-22T02:18:29.224Z,47.73
2022-08-22T02:21:17.945Z,47.49
2022-08-22T02:23:58.057Z,47.71
2022-08-22T02:27:05.120Z,48.49
2022-08-22T02:29:54.921Z,48.46
2022-08-22T02:32:32.070Z,48.53
2022-08-22T02:35:40.995Z,48.68
2022-08-22T02:38:26.440Z,48.61
2022-08-22T02:41:22.131Z,49.07
2022-08-22T02:43:50.276Z,49.19
2022-08-22T02:46:43.470Z,49.46
2022-08-22T02:49:27.336Z,49.53
2022-08-22T02:52:25.389Z,49.69
2022-08-22T02:55:14.745Z,49.79
2022-08-22T02:58:05.639Z,50.03
2022-08-22T03:00:46.621Z,49.87
2022-08-22T03:03:26.274Z,50.07
2022-08-22T03:06:01.750Z,49.94
2022-08-22T03:08:55.314Z,50.34
2022-08-22T03:11:31.080Z,50.57
2022-08-22T03:14:16.680Z,50.73
2022-08-22T03:16:47.715Z,50.69
2022-08-22T03:19:45.170Z,50.79
2022-08-22T03:22:42.510Z,50.97
2022-08-22T03:25:44.910Z,51.03
2022-08-22T03:28:24.270Z,51.25
2022-08-22T03:30:52.511Z,51.42
2022-08-22T03:33:24.195Z,51.33
2022-08-22T03:36:12.155Z,51.52
2022-08-22T03:38:50.985Z,51.40
2022-08-22T03:41:40.835Z,51.54
2022-08-22T03:44:44.355Z,51.74
2022-08-22T03:47:30.916Z,51.77
2022-08-22T03:50:13.960Z,51.94
2022-08-22T03:53:18.639Z,52.27
2022-08-22T03:56:15.870Z,52.30
2022-08-22T03:59:02.510Z,52.42
2022-08-22T04:01:49.155Z,52.16
2022-08-22T04:04:44.366Z,52.36
2022-08-22T04:07:44.115Z,52.66
2022-08-22T04:10:37.545Z,52.54
2022-08-22T04:13:18.295Z,52.66
2022-08-22T04:16:23.555Z,52.79
2022-08-22T04:19:20.766Z,52.75
2022-08-22T04:22:10.645Z,52.93
2022-08-22T04:24:52.079Z,52.93
2022-08-22T04:27:41.809Z,53.12
2022-08-22T04:30:39.077Z,53.33
2022-08-22T04:33:22.765Z,53.58
2022-08-22T04:36:55.150Z,53.81
2022-08-22T04:39:40.718Z,53.73
2022-08-22T04:42:32.146Z,54.03
2022-08-22T04:45:11.221Z,54.12
2022-08-22T04:47:55.656Z,54.21
2022-08-22T04:50:38.010Z,54.30
2022-08-22T04:53:19.790Z,54.75
2022-08-22T04:56:07.361Z,54.79
2022-08-22T04:58:56.519Z,54.89
2022-08-22T05:01:39.604Z,55.04
2022-08-22T05:04:12.015Z,55.03
2022-08-22T05:06:45.085Z,55.19
2022-08-22T05:09:19.960Z,55.16
2022-08-22T05:11:53.910Z,55.28
2022-08-22T05:14:32.765Z,55.46
2022-08-22T05:17:03.185Z,55.52
2022-08-22T05:19:38.260Z,55.72
2022-08-22T05:22:20.195Z,55.72
2022-08-22T05:24:53.594Z,55.79
2022-08-22T05:27:34.444Z,55.88
2022-08-22T05:30:14.470Z,55.93
2022-08-22T05:32:59.075Z,56.20
2022-08-22T05:35:39.786Z,56.25
2022-08-22T05:38:13.149Z,56.46
2022-08-22T05:40:44.035Z,56.40
2022-08-22T05:43:13.620Z,56.46
2022-08-22T05:45:47.557Z,56.68
2022-08-22T05:48:31.245Z,56.86
2022-08-22T05:51:10.114Z,56.98
2022-08-22T05:53:47.090Z,56.87
2022-08-22T05:56:20.520Z,57.21
2022-08-22T05:59:24.005Z,57.35
2022-08-22T06:02:19.714Z,57.49
2022-08-22T06:04:55.495Z,57.56
2022-08-22T06:07:32.169Z,57.51
2022-08-22T06:10:22.902Z,57.73
2022-08-22T06:12:54.257Z,57.66
2022-08-22T06:15:26.663Z,57.76
2022-08-22T06:18:08.498Z,57.63
2022-08-22T06:21:01.477Z,57.68
2022-08-22T06:23:36.238Z,57.89
2022-08-22T06:26:06.499Z,58.14
2022-08-22T06:28:54.887Z,58.06
2022-08-22T06:31:38.883Z,58.19
2022-08-22T06:34:14.900Z,58.32
2022-08-22T06:36:48.918Z,58.37
2022-08-22T06:39:32.189Z,58.47
2022-08-22T06:42:16.846Z,58.48
2022-08-22T06:45:09.878Z,58.51
2022-08-22T06:47:43.578Z,58.88
2022-08-22T06:50:31.973Z,59.13
2022-08-22T06:53:24.683Z,59.04
2022-08-22T06:55:57.452Z,58.96
2022-08-22T06:58:34.578Z,59.27
2022-08-22T07:01:32.534Z,59.64
2022-08-22T07:04:10.257Z,59.58
2022-08-22T07:06:42.098Z,59.58
2022-08-22T07:09:30.503Z,59.54
2022-08-22T07:12:03.219Z,59.62
2022-08-22T07:14:46.578Z,59.69
2022-08-22T07:17:25.463Z,59.84
2022-08-22T07:20:05.899Z,59.89
2022-08-22T07:22:38.740Z,59.85
2022-08-22T07:25:14.754Z,60.07
2022-08-22T07:28:15.907Z,60.30
2022-08-22T07:30:44.483Z,60.30
2022-08-22T07:33:36.019Z,60.73
2022-08-22T07:36:37.778Z,60.80
2022-08-22T07:39:26.578Z,60.84
2022-08-22T07:42:08.347Z,60.69
2022-08-22T07:44:59.148Z,60.98
2022-08-22T07:47:38.738Z,60.71
2022-08-22T07:50:13.868Z,60.99
2022-08-22T07:52:46.028Z,60.96
2022-08-22T07:55:24.173Z,61.10
2022-08-22T07:58:04.592Z,61.15
2022-08-22T08:00:34.343Z,61.26
2022-08-22T08:03:10.418Z,61.29
2022-08-22T08:05:42.579Z,61.13
2022-08-22T08:08:40.178Z,61.48
2022-08-22T08:11:13.298Z,61.48
2022-08-22T08:13:48.109Z,61.99
2022-08-22T08:16:25.703Z,61.98
2022-08-22T08:18:58.103Z,61.86
2022-08-22T08:21:36.003Z,62.05
2022-08-22T08:24:08.018Z,62.09
2022-08-22T08:27:02.236Z,62.34
2022-08-22T08:29:32.468Z,62.37
2022-08-22T08:32:03.058Z,62.88
2022-08-22T08:34:35.549Z,62.83
2022-08-22T08:37:26.584Z,62.83
2022-08-22T08:40:05.075Z,63.10
2022-08-22T08:43:14.242Z,63.25
2022-08-22T08:46:10.258Z,63.32
2022-08-22T08:49:06.488Z,63.16
2022-08-22T08:51:57.138Z,63.04
2022-08-22T08:54:37.413Z,63.15
2022-08-22T08:57:30.578Z,63.64
2022-08-22T09:00:15.867Z,63.57
2022-08-22T09:02:57.238Z,63.66
2022-08-22T09:05:46.737Z,63.73
2022-08-22T09:08:38.083Z,64.04
2022-08-22T09:11:18.223Z,64.13
2022-08-22T09:14:23.955Z,64.15
2022-08-22T09:17:16.427Z,64.22
2022-08-22T09:20:17.849Z,63.89
2022-08-22T09:23:12.505Z,64.12
2022-08-22T09:25:47.017Z,64.11
2022-08-22T09:31:48.317Z,64.21
2022-08-22T09:34:28.977Z,63.98
2022-08-22T09:37:09.137Z,64.39
2022-08-22T09:39:49.465Z,63.97
2022-08-22T09:42:56.563Z,64.25
2022-08-22T09:45:56.338Z,64.32
2022-08-22T09:48:54.257Z,64.22
2022-08-22T09:51:33.384Z,64.01
2022-08-22T09:54:14.257Z,64.22
2022-08-22T09:56:48.602Z,64.24
2022-08-22T09:59:22.262Z,64.33
2022-08-22T10:02:15.439Z,64.29
2022-08-22T10:04:59.382Z,64.45
2022-08-22T10:07:39.627Z,64.46
2022-08-22T10:10:22.897Z,64.29
2022-08-22T10:13:25.618Z,64.53
2022-08-22T10:16:02.583Z,64.56
2022-08-22T10:18:44.033Z,64.73
2022-08-22T10:21:36.337Z,64.61
2022-08-22T10:24:27.217Z,64.45
2022-08-22T10:27:02.833Z,64.39
2022-08-22T10:29:37.143Z,64.56
2022-08-22T10:32:14.517Z,64.48
2022-08-22T10:34:52.657Z,64.36
2022-08-22T10:38:02.578Z,64.55
2022-08-22T10:41:09.802Z,64.54
2022-08-22T10:44:01.155Z,64.36
2022-08-22T10:47:01.617Z,64.55
2022-08-22T10:49:36.497Z,64.32
2022-08-22T10:52:15.362Z,64.21
2022-08-22T10:55:01.779Z,64.46
2022-08-22T10:58:08.977Z,64.51
2022-08-22T11:00:50.352Z,64.52
2022-08-22T11:03:28.407Z,64.46
2022-08-22T11:06:02.577Z,64.65
2022-08-22T11:09:05.737Z,64.71
2022-08-22T11:11:45.142Z,64.50
2022-08-22T11:14:44.810Z,64.36
2022-08-22T11:18:03.630Z,64.69
2022-08-22T11:20:54.417Z,64.67
2022-08-22T11:23:28.923Z,64.62
2022-08-22T11:26:33.576Z,64.55
2022-08-22T11:29:41.242Z,64.60
2022-08-22T11:32:45.305Z,64.56
2022-08-22T11:35:28.498Z,64.63
2022-08-22T11:37:59.703Z,64.65
2022-08-22T11:40:49.778Z,64.84
2022-08-22T11:43:55.058Z,64.69
2022-08-22T11:46:29.944Z,64.74
2022-08-22T11:49:25.753Z,64.79
2022-08-22T11:52:13.622Z,64.56
2022-08-22T11:54:57.548Z,64.76
2022-08-22T11:57:39.698Z,64.69
2022-08-22T12:00:27.698Z,64.65
2022-08-22T12:03:01.877Z,64.62
2022-08-22T12:05:37.683Z,64.71
2022-08-22T12:08:21.366Z,64.74
2022-08-22T12:11:07.863Z,64.88
2022-08-22T12:13:41.898Z,64.78
2022-08-22T12:16:15.698Z,64.96
2022-08-22T12:18:52.976Z,64.93
2022-08-22T12:22:00.473Z,64.95
2022-08-22T12:24:50.577Z,65.12
2022-08-22T12:27:36.819Z,64.93
2022-08-22T12:30:46.184Z,65.24
2022-08-22T12:33:39.378Z,65.26
2022-08-22T12:36:22.378Z,65.17
2022-08-22T12:39:25.458Z,65.48
2022-08-22T12:42:35.862Z,65.56
2022-08-22T12:45:35.304Z,65.32
2022-08-22T12:48:08.823Z,65.44
2022-08-22T12:50:54.738Z,65.63
2022-08-22T12:53:35.379Z,65.58
2022-08-22T12:56:18.258Z,65.59
2022-08-22T12:59:08.659Z,65.91
2022-08-22T13:01:43.529Z,65.81
2022-08-22T13:04:34.367Z,65.84
2022-08-22T13:07:23.543Z,66.01
2022-08-22T13:10:00.024Z,65.87
2022-08-22T13:12:36.660Z,66.05
2022-08-22T13:15:55.379Z,66.10
2022-08-22T13:18:32.297Z,66.26
2022-08-22T13:21:11.556Z,66.25
2022-08-22T13:23:48.178Z,66.46
2022-08-22T13:26:32.057Z,66.43
2022-08-22T13:29:25.146Z,66.44
2022-08-22T13:32:02.429Z,66.50
2022-08-22T13:34:55.953Z,66.56
2022-08-22T13:37:45.064Z,66.73
2022-08-22T13:40:33.138Z,66.94
2022-08-22T13:43:12.588Z,66.89
2022-08-22T13:45:51.539Z,66.97
2022-08-22T13:48:24.018Z,66.97
2022-08-22T13:51:05.623Z,67.10
2022-08-22T13:54:02.096Z,67.21
2022-08-22T13:56:47.180Z,67.13
2022-08-22T13:59:50.254Z,67.17
2022-08-22T14:02:43.188Z,67.42
2022-08-22T14:05:29.302Z,67.36
2022-08-22T14:08:25.734Z,67.33
2022-08-22T14:11:01.390Z,67.53
2022-08-22T14:13:51.073Z,67.48
2022-08-22T14:16:35.059Z,67.58
2022-08-22T14:19:13.299Z,67.46
2022-08-22T14:21:59.249Z,67.38
2022-08-22T14:24:55.773Z,67.43
2022-08-22T14:28:01.041Z,67.38
2022-08-22T14:30:37.939Z,67.26
2022-08-22T14:33:19.863Z,67.12
2022-08-22T14:36:00.499Z,67.09
2022-08-22T14:38:37.464Z,66.96
2022-08-22T14:41:57.102Z,66.86
2022-08-22T14:44:46.829Z,66.71
2022-08-22T14:47:55.361Z,66.74
2022-08-22T14:50:53.151Z,66.33
2022-08-22T14:53:30.901Z,66.41
2022-08-22T14:56:29.298Z,66.50
2022-08-22T14:59:14.883Z,66.27
2022-08-22T15:01:59.662Z,66.07
2022-08-22T15:04:38.823Z,66.05
2022-08-22T15:07:09.947Z,65.88
2022-08-22T15:09:44.688Z,65.69
2022-08-22T15:12:35.223Z,65.49
2022-08-22T15:15:09.398Z,65.52
2022-08-22T15:17:40.317Z,65.60
2022-08-22T15:20:27.701Z,65.51
2022-08-22T15:23:01.424Z,65.26
2022-08-22T15:25:32.590Z,65.13
2022-08-22T15:28:20.149Z,65.02
2022-08-22T15:30:59.706Z,65.09
2022-08-22T15:33:35.323Z,64.76
2022-08-22T15:36:24.348Z,64.63
2022-08-22T15:39:14.107Z,64.72
2022-08-22T15:41:47.343Z,64.51
2022-08-22T15:44:32.234Z,64.50
2022-08-22T15:47:11.824Z,64.09
2022-08-22T15:50:03.015Z,63.95
2022-08-22T15:52:59.011Z,63.56
2022-08-22T15:55:34.553Z,63.74
2022-08-22T15:58:21.940Z,63.57
2022-08-22T16:01:18.896Z,63.61
2022-08-22T16:04:13.923Z,63.63
2022-08-22T16:06:54.524Z,63.36
2022-08-22T16:09:44.582Z,63.28
2022-08-22T16:12:53.791Z,63.07
2022-08-22T16:15:55.770Z,62.84
2022-08-22T16:18:43.547Z,62.56
2022-08-22T16:21:19.382Z,62.50
2022-08-22T16:23:59.379Z,62.62
2022-08-22T16:26:40.950Z,62.23
2022-08-22T16:29:17.495Z,62.13
2022-08-22T16:31:49.457Z,62.12
2022-08-22T16:34:21.242Z,62.04
2022-08-22T16:37:10.052Z,61.80
2022-08-22T16:39:48.059Z,61.54
2022-08-22T16:42:25.231Z,61.24
2022-08-22T16:45:16.017Z,60.96
2022-08-22T16:48:36.427Z,60.81
2022-08-22T16:51:13.783Z,60.72
2022-08-22T16:53:45.932Z,60.33
2022-08-22T16:56:23.542Z,60.03
2022-08-22T16:59:19.334Z,59.67
2022-08-22T17:02:08.023Z,59.29
2022-08-22T17:04:56.178Z,58.53
2022-08-22T17:07:47.027Z,58.89
2022-08-22T17:10:43.218Z,58.78
2022-08-22T17:13:26.276Z,58.34
2022-08-22T17:16:16.985Z,58.18
2022-08-22T17:19:03.542Z,57.65
2022-08-22T17:21:59.702Z,57.54
2022-08-22T17:24:42.262Z,57.70
2022-08-22T17:27:32.572Z,57.17
2022-08-22T17:30:14.412Z,56.74
2022-08-22T17:32:59.185Z,56.42
2022-08-22T17:36:01.622Z,56.10
2022-08-22T17:38:39.335Z,55.75
2022-08-22T17:41:30.547Z,55.54
2022-08-22T17:44:22.831Z,55.11
2022-08-22T17:47:01.296Z,55.31
2022-08-22T17:49:47.627Z,54.38
2022-08-22T17:52:27.862Z,53.53
2022-08-22T17:55:03.058Z,53.09
2022-08-22T17:57:37.778Z,53.64
2022-08-22T18:00:36.923Z,52.54
2022-08-22T18:03:23.537Z,52.33
2022-08-22T18:06:05.297Z,52.35
2022-08-22T18:09:15.775Z,51.82
2022-08-22T18:12:03.473Z,51.46
2022-08-22T18:14:45.252Z,50.89
2022-08-22T18:17:36.182Z,51.15
2022-08-22T18:20:29.598Z,50.80
2022-08-22T18:23:36.182Z,50.24
2022-08-22T18:26:21.292Z,50.24
2022-08-22T18:28:55.813Z,49.98
2022-08-22T18:32:07.238Z,49.47
2022-08-22T18:34:45.270Z,49.59
2022-08-22T18:37:24.083Z,49.11
2022-08-22T18:40:02.789Z,48.81
2022-08-22T18:42:56.672Z,47.94
2022-08-22T18:45:49.778Z,47.96
2022-08-22T18:48:28.618Z,47.62
2022-08-22T18:51:24.815Z,47.13
2022-08-22T18:54:06.303Z,46.39
2022-08-22T18:56:56.755Z,46.32
2022-08-22T19:00:01.403Z,45.86
2022-08-22T19:02:58.483Z,45.79
2022-08-22T19:05:35.538Z,45.65
2022-08-22T19:08:12.503Z,45.13
2022-08-22T19:11:09.298Z,44.65
2022-08-22T19:14:23.628Z,42.82
2022-08-22T19:17:17.098Z,43.30
2022-08-22T19:20:15.759Z,43.17
2022-08-22T19:22:44.925Z,42.65
2022-08-22T19:25:29.458Z,41.84
2022-08-22T19:28:10.364Z,41.04
2022-08-22T19:31:16.093Z,40.98
2022-08-22T19:34:11.961Z,41.00
2022-08-22T19:36:40.346Z,40.60
2022-08-22T19:39:13.425Z,39.80
2022-08-22T19:41:48.346Z,39.91
2022-08-22T19:44:19.868Z,39.46
2022-08-22T19:47:05.544Z,38.82
2022-08-22T19:49:41.894Z,38.16
2022-08-22T19:52:24.924Z,37.99
2022-08-22T19:55:27.064Z,37.59
2022-08-22T19:57:58.189Z,37.29
2022-08-22T20:00:49.310Z,36.01
2022-08-22T20:03:20.764Z,36.13
2022-08-22T20:06:43.429Z,35.62
2022-08-22T20:09:43.701Z,34.79
2022-08-22T20:12:23.734Z,35.05
2022-08-22T20:14:53.134Z,34.92
2022-08-22T20:17:27.474Z,34.75
2022-08-22T20:23:05.100Z,32.88
2022-08-22T20:25:54.225Z,33.42
2022-08-22T20:28:48.020Z,33.14
2022-08-22T20:31:26.265Z,32.84
2022-08-22T20:34:01.794Z,32.71
2022-08-22T20:36:31.555Z,32.88
2022-08-22T20:39:06.904Z,32.25
2022-08-22T20:41:44.345Z,31.86
2022-08-22T20:44:20.594Z,31.53
2022-08-22T20:47:06.889Z,31.66
2022-08-22T20:49:51.284Z,32.17
2022-08-22T20:52:39.069Z,32.15
2022-08-22T20:55:16.439Z,31.86
2022-08-22T20:57:50.550Z,31.54
2022-08-22T21:00:25.419Z,31.33
2022-08-22T21:03:10.674Z,30.84
2022-08-22T21:05:41.944Z,31.16
2022-08-22T21:08:15.702Z,31.20
2022-08-22T21:11:01.862Z,31.36
2022-08-22T21:13:38.942Z,31.42
2022-08-22T21:16:19.220Z,30.50
2022-08-22T21:18:50.898Z,30.99
2022-08-22T21:21:32.978Z,31.37
2022-08-22T21:24:05.463Z,30.81
2022-08-22T21:26:39.858Z,30.99
2022-08-22T21:29:14.225Z,31.03
2022-08-22T21:31:59.296Z,31.21
2022-08-22T21:34:42.044Z,30.49
2022-08-22T21:37:27.671Z,30.60
2022-08-22T21:40:21.969Z,31.24
2022-08-22T21:43:01.143Z,30.83
2022-08-22T21:45:43.383Z,31.28
2022-08-22T21:48:39.394Z,31.54
2022-08-22T21:51:27.703Z,31.02
2022-08-22T21:54:26.722Z,31.28
2022-08-22T21:57:28.408Z,31.12
2022-08-22T21:59:59.531Z,31.03
2022-08-22T22:02:36.634Z,30.42
2022-08-22T22:05:12.502Z,30.48
2022-08-22T22:07:43.556Z,30.39
2022-08-22T22:10:14.093Z,30.71
2022-08-22T22:12:45.308Z,30.21
2022-08-22T22:15:18.259Z,30.32
2022-08-22T22:17:46.638Z,29.76
2022-08-22T22:20:17.303Z,29.89
2022-08-22T22:22:46.854Z,30.38
2022-08-22T22:25:40.477Z,30.20
2022-08-22T22:28:22.694Z,30.79
2022-08-22T22:30:54.361Z,31.24
2022-08-22T22:33:29.873Z,31.15
2022-08-22T22:36:02.258Z,30.76
2022-08-22T22:38:30.739Z,30.98
2022-08-22T22:40:58.993Z,31.42
2022-08-22T22:43:27.543Z,31.20
2022-08-22T22:45:56.564Z,31.96
2022-08-22T22:48:25.873Z,32.34
2022-08-22T22:50:55.222Z,32.48
2022-08-22T22:53:33.790Z,32.70
2022-08-22T22:56:09.903Z,32.85
2022-08-22T22:58:39.559Z,33.25
2022-08-22T23:01:18.505Z,33.70
2022-08-22T23:03:48.149Z,34.10
2022-08-22T23:06:21.302Z,34.32
2022-08-22T23:08:50.755Z,34.73
2022-08-22T23:11:28.503Z,35.15
2022-08-22T23:13:57.457Z,35.74
2022-08-22T23:16:29.203Z,35.84
2022-08-22T23:18:57.763Z,36.01
2022-08-22T23:21:29.298Z,36.53
2022-08-22T23:23:59.658Z,37.04
2022-08-22T23:26:29.624Z,36.96
2022-08-22T23:28:58.835Z,37.26
2022-08-22T23:31:40.986Z,37.68
2022-08-22T23:34:12.518Z,38.01
2022-08-22T23:36:46.264Z,38.39
2022-08-22T23:39:17.297Z,38.11
2022-08-22T23:41:46.664Z,38.37
2022-08-22T23:44:17.233Z,38.63
2022-08-22T23:46:46.147Z,39.05
2022-08-22T23:49:15.555Z,39.47
2022-08-22T23:51:45.513Z,40.02
2022-08-22T23:54:14.738Z,40.39
2022-08-22T23:56:50.360Z,39.84
2022-08-22T23:59:22.653Z,40.21
